sensor_id;sensor_type;location;lat;lon;timestamp;P1;durP1;ratioP1;P2;durP2;ratioP2
16099;SDS011;8154;50.830;12.082;2022-09-09T00:08:13;1.30;;;1.20;;
16099;SDS011;8154;50.830;12.082;2022-09-09T00:11:03;1.15;;;1.02;;
16099;SDS011;8154;50.830;12.082;2022-09-09T00:13:51;1.67;;;1.08;;
16099;SDS011;8154;50.830;12.082;2022-09-09T00:16:38;1.40;;;1.25;;
16099;SDS011;8154;50.830;12.082;2022-09-09T00:20:11;1.50;;;1.20;;
16099;SDS011;8154;50.830;12.082;2022-09-09T00:23:03;3.67;;;1.10;;
16099;SDS011;8154;50.830;12.082;2022-09-09T00:26:02;1.33;;;1.20;;
16099;SDS011;8154;50.830;12.082;2022-09-09T00:32:00;1.83;;;1.02;;
16099;SDS011;8154;50.830;12.082;2022-09-09T00:34:56;1.67;;;1.13;;
16099;SDS011;8154;50.830;12.082;2022-09-09T00:37:48;1.30;;;1.20;;
16099;SDS011;8154;50.830;12.082;2022-09-09T00:40:38;1.05;;;0.98;;
16099;SDS011;8154;50.830;12.082;2022-09-09T00:43:30;1.52;;;1.10;;
16099;SDS011;8154;50.830;12.082;2022-09-09T00:46:39;1.38;;;1.10;;
16099;SDS011;8154;50.830;12.082;2022-09-09T00:49:38;1.45;;;1.05;;
16099;SDS011;8154;50.830;12.082;2022-09-09T00:53:56;1.30;;;1.10;;
16099;SDS011;8154;50.830;12.082;2022-09-09T00:59:03;1.63;;;1.10;;
16099;SDS011;8154;50.830;12.082;2022-09-09T01:01:59;2.00;;;1.05;;
16099;SDS011;8154;50.830;12.082;2022-09-09T01:04:45;1.15;;;1.08;;
16099;SDS011;8154;50.830;12.082;2022-09-09T01:07:29;1.23;;;1.10;;
16099;SDS011;8154;50.830;12.082;2022-09-09T01:10:26;1.45;;;1.00;;
16099;SDS011;8154;50.830;12.082;2022-09-09T01:13:33;1.17;;;0.93;;
16099;SDS011;8154;50.830;12.082;2022-09-09T01:16:19;1.02;;;0.93;;
16099;SDS011;8154;50.830;12.082;2022-09-09T01:19:03;1.20;;;1.00;;
16099;SDS011;8154;50.830;12.082;2022-09-09T01:22:01;2.50;;;1.10;;
16099;SDS011;8154;50.830;12.082;2022-09-09T01:25:07;1.85;;;1.10;;
16099;SDS011;8154;50.830;12.082;2022-09-09T01:27:54;0.90;;;0.90;;
16099;SDS011;8154;50.830;12.082;2022-09-09T01:30:46;1.00;;;1.00;;
16099;SDS011;8154;50.830;12.082;2022-09-09T01:33:31;2.08;;;1.17;;
16099;SDS011;8154;50.830;12.082;2022-09-09T01:36:18;1.08;;;0.98;;
16099;SDS011;8154;50.830;12.082;2022-09-09T01:39:04;1.02;;;0.93;;
16099;SDS011;8154;50.830;12.082;2022-09-09T01:41:49;1.23;;;1.02;;
16099;SDS011;8154;50.830;12.082;2022-09-09T01:44:33;1.20;;;1.00;;
16099;SDS011;8154;50.830;12.082;2022-09-09T01:47:18;1.13;;;1.00;;
16099;SDS011;8154;50.830;12.082;2022-09-09T01:50:02;0.90;;;0.90;;
16099;SDS011;8154;50.830;12.082;2022-09-09T01:52:48;1.10;;;1.00;;
16099;SDS011;8154;50.830;12.082;2022-09-09T01:55:39;1.25;;;1.00;;
16099;SDS011;8154;50.830;12.082;2022-09-09T01:58:34;1.85;;;1.10;;
16099;SDS011;8154;50.830;12.082;2022-09-09T02:04:36;1.42;;;1.10;;
16099;SDS011;8154;50.830;12.082;2022-09-09T02:07:28;1.58;;;1.00;;
16099;SDS011;8154;50.830;12.082;2022-09-09T02:10:16;1.20;;;1.05;;
16099;SDS011;8154;50.830;12.082;2022-09-09T02:13:10;1.48;;;0.98;;
16099;SDS011;8154;50.830;12.082;2022-09-09T02:21:59;1.42;;;0.90;;
16099;SDS011;8154;50.830;12.082;2022-09-09T02:24:45;1.63;;;1.00;;
16099;SDS011;8154;50.830;12.082;2022-09-09T02:27:31;1.33;;;1.00;;
16099;SDS011;8154;50.830;12.082;2022-09-09T02:30:15;1.88;;;1.00;;
16099;SDS011;8154;50.830;12.082;2022-09-09T02:33:00;1.92;;;1.10;;
16099;SDS011;8154;50.830;12.082;2022-09-09T02:35:47;2.88;;;0.98;;
16099;SDS011;8154;50.830;12.082;2022-09-09T02:38:35;2.05;;;1.00;;
16099;SDS011;8154;50.830;12.082;2022-09-09T02:41:28;1.40;;;0.90;;
16099;SDS011;8154;50.830;12.082;2022-09-09T02:44:17;1.20;;;1.10;;
16099;SDS011;8154;50.830;12.082;2022-09-09T02:50:34;1.02;;;0.90;;
16099;SDS011;8154;50.830;12.082;2022-09-09T02:53:27;1.55;;;1.10;;
16099;SDS011;8154;50.830;12.082;2022-09-09T02:56:21;1.40;;;0.80;;
16099;SDS011;8154;50.830;12.082;2022-09-09T02:59:09;1.40;;;1.00;;
16099;SDS011;8154;50.830;12.082;2022-09-09T03:01:55;1.67;;;0.90;;
16099;SDS011;8154;50.830;12.082;2022-09-09T03:04:39;1.10;;;0.85;;
16099;SDS011;8154;50.830;12.082;2022-09-09T03:07:25;1.83;;;0.90;;
16099;SDS011;8154;50.830;12.082;2022-09-09T03:10:10;1.70;;;1.00;;
16099;SDS011;8154;50.830;12.082;2022-09-09T03:12:54;1.10;;;1.00;;
16099;SDS011;8154;50.830;12.082;2022-09-09T03:15:39;1.05;;;1.00;;
16099;SDS011;8154;50.830;12.082;2022-09-09T03:18:23;1.45;;;1.00;;
16099;SDS011;8154;50.830;12.082;2022-09-09T03:21:07;1.40;;;1.00;;
16099;SDS011;8154;50.830;12.082;2022-09-09T03:23:52;2.20;;;1.10;;
16099;SDS011;8154;50.830;12.082;2022-09-09T03:26:36;1.17;;;1.00;;
16099;SDS011;8154;50.830;12.082;2022-09-09T03:29:21;0.82;;;0.80;;
16099;SDS011;8154;50.830;12.082;2022-09-09T03:32:05;1.08;;;0.90;;
16099;SDS011;8154;50.830;12.082;2022-09-09T03:34:49;2.28;;;1.00;;
16099;SDS011;8154;50.830;12.082;2022-09-09T03:37:33;1.08;;;0.90;;
16099;SDS011;8154;50.830;12.082;2022-09-09T03:40:17;1.75;;;0.88;;
16099;SDS011;8154;50.830;12.082;2022-09-09T03:43:03;3.63;;;1.10;;
16099;SDS011;8154;50.830;12.082;2022-09-09T03:45:47;1.30;;;0.90;;
16099;SDS011;8154;50.830;12.082;2022-09-09T03:48:31;1.05;;;0.95;;
16099;SDS011;8154;50.830;12.082;2022-09-09T03:51:16;1.95;;;1.00;;
16099;SDS011;8154;50.830;12.082;2022-09-09T03:54:00;2.22;;;1.10;;
16099;SDS011;8154;50.830;12.082;2022-09-09T03:56:44;1.33;;;0.90;;
16099;SDS011;8154;50.830;12.082;2022-09-09T03:59:29;0.95;;;0.80;;
16099;SDS011;8154;50.830;12.082;2022-09-09T04:02:13;1.20;;;0.80;;
16099;SDS011;8154;50.830;12.082;2022-09-09T04:04:59;1.20;;;0.80;;
16099;SDS011;8154;50.830;12.082;2022-09-09T04:07:43;1.35;;;0.98;;
16099;SDS011;8154;50.830;12.082;2022-09-09T04:10:27;0.70;;;0.70;;
16099;SDS011;8154;50.830;12.082;2022-09-09T04:13:12;1.67;;;0.90;;
16099;SDS011;8154;50.830;12.082;2022-09-09T04:15:58;1.38;;;0.90;;
16099;SDS011;8154;50.830;12.082;2022-09-09T04:18:44;1.60;;;1.00;;
16099;SDS011;8154;50.830;12.082;2022-09-09T04:21:28;1.10;;;0.70;;
16099;SDS011;8154;50.830;12.082;2022-09-09T04:24:13;0.95;;;0.90;;
16099;SDS011;8154;50.830;12.082;2022-09-09T04:26:57;1.10;;;0.80;;
16099;SDS011;8154;50.830;12.082;2022-09-09T04:29:41;1.55;;;0.90;;
16099;SDS011;8154;50.830;12.082;2022-09-09T04:32:25;1.35;;;1.00;;
16099;SDS011;8154;50.830;12.082;2022-09-09T04:35:11;1.17;;;0.80;;
16099;SDS011;8154;50.830;12.082;2022-09-09T04:37:55;1.38;;;0.98;;
16099;SDS011;8154;50.830;12.082;2022-09-09T04:40:41;0.93;;;0.80;;
16099;SDS011;8154;50.830;12.082;2022-09-09T04:43:27;1.25;;;0.90;;
16099;SDS011;8154;50.830;12.082;2022-09-09T04:46:11;1.33;;;1.00;;
16099;SDS011;8154;50.830;12.082;2022-09-09T04:48:55;1.52;;;1.08;;
16099;SDS011;8154;50.830;12.082;2022-09-09T04:51:39;1.05;;;1.00;;
16099;SDS011;8154;50.830;12.082;2022-09-09T04:54:24;1.65;;;1.00;;
16099;SDS011;8154;50.830;12.082;2022-09-09T04:57:10;1.30;;;0.90;;
16099;SDS011;8154;50.830;12.082;2022-09-09T04:59:54;1.52;;;0.90;;
16099;SDS011;8154;50.830;12.082;2022-09-09T05:02:39;1.75;;;1.08;;
16099;SDS011;8154;50.830;12.082;2022-09-09T05:05:23;1.00;;;0.90;;
16099;SDS011;8154;50.830;12.082;2022-09-09T05:08:07;1.25;;;1.00;;
16099;SDS011;8154;50.830;12.082;2022-09-09T05:10:52;1.38;;;1.00;;
16099;SDS011;8154;50.830;12.082;2022-09-09T05:13:37;1.10;;;0.90;;
16099;SDS011;8154;50.830;12.082;2022-09-09T05:16:21;1.00;;;0.90;;
16099;SDS011;8154;50.830;12.082;2022-09-09T05:19:06;1.63;;;1.02;;
16099;SDS011;8154;50.830;12.082;2022-09-09T05:21:52;1.38;;;0.98;;
16099;SDS011;8154;50.830;12.082;2022-09-09T05:24:36;1.20;;;1.08;;
16099;SDS011;8154;50.830;12.082;2022-09-09T05:27:20;1.63;;;0.98;;
16099;SDS011;8154;50.830;12.082;2022-09-09T05:30:05;1.00;;;1.00;;
16099;SDS011;8154;50.830;12.082;2022-09-09T05:32:49;1.83;;;1.20;;
16099;SDS011;8154;50.830;12.082;2022-09-09T05:35:34;1.42;;;1.00;;
16099;SDS011;8154;50.830;12.082;2022-09-09T05:38:18;1.75;;;1.10;;
16099;SDS011;8154;50.830;12.082;2022-09-09T05:41:02;1.20;;;1.10;;
16099;SDS011;8154;50.830;12.082;2022-09-09T05:43:47;1.52;;;1.02;;
16099;SDS011;8154;50.830;12.082;2022-09-09T05:46:33;1.90;;;1.10;;
16099;SDS011;8154;50.830;12.082;2022-09-09T05:49:17;1.55;;;1.00;;
16099;SDS011;8154;50.830;12.082;2022-09-09T05:52:01;1.65;;;1.10;;
16099;SDS011;8154;50.830;12.082;2022-09-09T05:54:47;1.42;;;1.10;;
16099;SDS011;8154;50.830;12.082;2022-09-09T05:57:32;2.03;;;1.00;;
16099;SDS011;8154;50.830;12.082;2022-09-09T06:00:16;1.17;;;1.00;;
16099;SDS011;8154;50.830;12.082;2022-09-09T06:03:00;1.30;;;1.00;;
16099;SDS011;8154;50.830;12.082;2022-09-09T06:05:44;1.30;;;1.10;;
16099;SDS011;8154;50.830;12.082;2022-09-09T06:08:29;1.52;;;1.00;;
16099;SDS011;8154;50.830;12.082;2022-09-09T06:11:14;1.73;;;0.95;;
16099;SDS011;8154;50.830;12.082;2022-09-09T06:14:03;0.90;;;0.90;;
16099;SDS011;8154;50.830;12.082;2022-09-09T06:16:47;2.15;;;1.00;;
16099;SDS011;8154;50.830;12.082;2022-09-09T06:19:31;1.15;;;1.02;;
16099;SDS011;8154;50.830;12.082;2022-09-09T06:22:15;1.10;;;1.00;;
16099;SDS011;8154;50.830;12.082;2022-09-09T06:25:01;1.00;;;0.90;;
16099;SDS011;8154;50.830;12.082;2022-09-09T06:27:48;1.05;;;1.00;;
16099;SDS011;8154;50.830;12.082;2022-09-09T06:30:33;1.50;;;1.20;;
16099;SDS011;8154;50.830;12.082;2022-09-09T06:33:18;4.10;;;1.10;;
16099;SDS011;8154;50.830;12.082;2022-09-09T06:36:03;1.52;;;1.10;;
16099;SDS011;8154;50.830;12.082;2022-09-09T06:38:47;1.42;;;1.10;;
16099;SDS011;8154;50.830;12.082;2022-09-09T06:41:32;1.60;;;1.10;;
16099;SDS011;8154;50.830;12.082;2022-09-09T06:44:16;1.98;;;1.00;;
16099;SDS011;8154;50.830;12.082;2022-09-09T06:47:00;2.00;;;1.10;;
16099;SDS011;8154;50.830;12.082;2022-09-09T06:49:44;1.05;;;1.00;;
16099;SDS011;8154;50.830;12.082;2022-09-09T06:52:29;1.48;;;1.15;;
16099;SDS011;8154;50.830;12.082;2022-09-09T06:55:13;1.10;;;1.00;;
16099;SDS011;8154;50.830;12.082;2022-09-09T06:58:00;1.83;;;1.10;;
16099;SDS011;8154;50.830;12.082;2022-09-09T07:00:43;1.10;;;1.00;;
16099;SDS011;8154;50.830;12.082;2022-09-09T07:03:28;1.23;;;1.10;;
16099;SDS011;8154;50.830;12.082;2022-09-09T07:06:13;1.73;;;1.10;;
16099;SDS011;8154;50.830;12.082;2022-09-09T07:09:07;1.30;;;1.20;;
16099;SDS011;8154;50.830;12.082;2022-09-09T07:11:52;1.50;;;1.10;;
16099;SDS011;8154;50.830;12.082;2022-09-09T07:14:36;1.27;;;1.13;;
16099;SDS011;8154;50.830;12.082;2022-09-09T07:17:21;1.90;;;1.23;;
16099;SDS011;8154;50.830;12.082;2022-09-09T07:20:05;1.20;;;1.10;;
16099;SDS011;8154;50.830;12.082;2022-09-09T07:22:50;1.30;;;1.10;;
16099;SDS011;8154;50.830;12.082;2022-09-09T07:25:44;1.35;;;1.10;;
16099;SDS011;8154;50.830;12.082;2022-09-09T07:28:29;1.70;;;1.13;;
16099;SDS011;8154;50.830;12.082;2022-09-09T07:31:16;1.40;;;1.10;;
16099;SDS011;8154;50.830;12.082;2022-09-09T07:34:02;1.67;;;1.10;;
16099;SDS011;8154;50.830;12.082;2022-09-09T07:36:48;0.95;;;0.93;;
16099;SDS011;8154;50.830;12.082;2022-09-09T07:39:32;1.45;;;1.10;;
16099;SDS011;8154;50.830;12.082;2022-09-09T07:42:16;1.13;;;1.02;;
16099;SDS011;8154;50.830;12.082;2022-09-09T07:45:00;1.40;;;1.00;;
16099;SDS011;8154;50.830;12.082;2022-09-09T07:47:45;1.02;;;1.00;;
16099;SDS011;8154;50.830;12.082;2022-09-09T07:50:29;1.27;;;1.00;;
16099;SDS011;8154;50.830;12.082;2022-09-09T07:53:13;1.67;;;1.10;;
16099;SDS011;8154;50.830;12.082;2022-09-09T07:56:02;1.67;;;1.00;;
16099;SDS011;8154;50.830;12.082;2022-09-09T07:58:48;2.47;;;1.05;;
16099;SDS011;8154;50.830;12.082;2022-09-09T08:01:34;1.15;;;1.02;;
16099;SDS011;8154;50.830;12.082;2022-09-09T08:04:24;2.08;;;1.20;;
16099;SDS011;8154;50.830;12.082;2022-09-09T08:07:09;2.22;;;1.00;;
16099;SDS011;8154;50.830;12.082;2022-09-09T08:09:54;1.33;;;1.10;;
16099;SDS011;8154;50.830;12.082;2022-09-09T08:12:39;1.10;;;1.00;;
16099;SDS011;8154;50.830;12.082;2022-09-09T08:15:24;1.10;;;0.90;;
16099;SDS011;8154;50.830;12.082;2022-09-09T08:18:08;1.10;;;1.00;;
16099;SDS011;8154;50.830;12.082;2022-09-09T08:20:53;1.95;;;1.15;;
16099;SDS011;8154;50.830;12.082;2022-09-09T08:23:38;1.10;;;1.00;;
16099;SDS011;8154;50.830;12.082;2022-09-09T08:26:24;1.35;;;1.00;;
16099;SDS011;8154;50.830;12.082;2022-09-09T08:29:13;1.13;;;1.00;;
16099;SDS011;8154;50.830;12.082;2022-09-09T08:31:58;1.45;;;1.00;;
16099;SDS011;8154;50.830;12.082;2022-09-09T08:34:42;1.13;;;1.00;;
16099;SDS011;8154;50.830;12.082;2022-09-09T08:37:26;1.10;;;1.00;;
16099;SDS011;8154;50.830;12.082;2022-09-09T08:40:11;1.30;;;1.20;;
16099;SDS011;8154;50.830;12.082;2022-09-09T08:43:18;2.17;;;1.00;;
16099;SDS011;8154;50.830;12.082;2022-09-09T08:46:09;1.05;;;0.80;;
16099;SDS011;8154;50.830;12.082;2022-09-09T08:49:06;1.33;;;0.90;;
16099;SDS011;8154;50.830;12.082;2022-09-09T08:51:59;0.90;;;0.90;;
16099;SDS011;8154;50.830;12.082;2022-09-09T08:54:45;0.90;;;0.90;;
16099;SDS011;8154;50.830;12.082;2022-09-09T08:57:30;0.93;;;0.88;;
16099;SDS011;8154;50.830;12.082;2022-09-09T09:00:15;0.93;;;0.88;;
16099;SDS011;8154;50.830;12.082;2022-09-09T09:03:07;0.80;;;0.80;;
16099;SDS011;8154;50.830;12.082;2022-09-09T09:11:57;0.90;;;0.90;;
16099;SDS011;8154;50.830;12.082;2022-09-09T09:14:47;1.75;;;0.90;;
16099;SDS011;8154;50.830;12.082;2022-09-09T09:17:33;1.08;;;0.98;;
16099;SDS011;8154;50.830;12.082;2022-09-09T09:20:18;1.08;;;0.90;;
16099;SDS011;8154;50.830;12.082;2022-09-09T09:23:13;0.85;;;0.85;;
16099;SDS011;8154;50.830;12.082;2022-09-09T09:26:06;1.17;;;1.00;;
16099;SDS011;8154;50.830;12.082;2022-09-09T09:28:54;1.13;;;0.80;;
16099;SDS011;8154;50.830;12.082;2022-09-09T09:31:45;0.95;;;0.90;;
16099;SDS011;8154;50.830;12.082;2022-09-09T09:34:35;1.30;;;0.90;;
16099;SDS011;8154;50.830;12.082;2022-09-09T09:37:22;1.30;;;1.15;;
16099;SDS011;8154;50.830;12.082;2022-09-09T09:40:15;1.50;;;0.90;;
16099;SDS011;8154;50.830;12.082;2022-09-09T09:43:01;1.67;;;0.85;;
16099;SDS011;8154;50.830;12.082;2022-09-09T09:45:51;1.13;;;1.00;;
16099;SDS011;8154;50.830;12.082;2022-09-09T09:48:36;0.95;;;0.85;;
16099;SDS011;8154;50.830;12.082;2022-09-09T09:51:20;1.00;;;0.90;;
16099;SDS011;8154;50.830;12.082;2022-09-09T09:54:15;0.98;;;0.98;;
16099;SDS011;8154;50.830;12.082;2022-09-09T09:57:16;1.30;;;1.13;;
16099;SDS011;8154;50.830;12.082;2022-09-09T10:00:15;0.95;;;0.93;;
16099;SDS011;8154;50.830;12.082;2022-09-09T10:03:02;1.67;;;1.10;;
16099;SDS011;8154;50.830;12.082;2022-09-09T10:06:03;0.88;;;0.88;;
16099;SDS011;8154;50.830;12.082;2022-09-09T10:08:48;1.17;;;0.93;;
16099;SDS011;8154;50.830;12.082;2022-09-09T10:14:43;1.00;;;0.90;;
16099;SDS011;8154;50.830;12.082;2022-09-09T10:20:52;0.98;;;0.98;;
16099;SDS011;8154;50.830;12.082;2022-09-09T10:30:16;1.10;;;1.00;;
16099;SDS011;8154;50.830;12.082;2022-09-09T10:33:10;0.90;;;0.90;;
16099;SDS011;8154;50.830;12.082;2022-09-09T10:36:12;0.95;;;0.90;;
16099;SDS011;8154;50.830;12.082;2022-09-09T10:39:06;1.02;;;0.98;;
16099;SDS011;8154;50.830;12.082;2022-09-09T10:42:26;0.85;;;0.82;;
16099;SDS011;8154;50.830;12.082;2022-09-09T10:54:12;1.33;;;0.90;;
16099;SDS011;8154;50.830;12.082;2022-09-09T10:57:05;1.27;;;0.80;;
16099;SDS011;8154;50.830;12.082;2022-09-09T10:59:55;0.90;;;0.90;;
16099;SDS011;8154;50.830;12.082;2022-09-09T11:06:04;0.85;;;0.85;;
16099;SDS011;8154;50.830;12.082;2022-09-09T11:08:53;0.88;;;0.88;;
16099;SDS011;8154;50.830;12.082;2022-09-09T11:11:42;0.85;;;0.80;;
16099;SDS011;8154;50.830;12.082;2022-09-09T11:14:33;0.88;;;0.88;;
16099;SDS011;8154;50.830;12.082;2022-09-09T11:17:30;1.25;;;0.80;;
16099;SDS011;8154;50.830;12.082;2022-09-09T11:20:23;1.10;;;0.80;;
16099;SDS011;8154;50.830;12.082;2022-09-09T11:23:16;1.10;;;0.98;;
16099;SDS011;8154;50.830;12.082;2022-09-09T11:26:06;0.80;;;0.80;;
16099;SDS011;8154;50.830;12.082;2022-09-09T11:29:32;1.38;;;0.90;;
16099;SDS011;8154;50.830;12.082;2022-09-09T11:32:34;0.85;;;0.82;;
16099;SDS011;8154;50.830;12.082;2022-09-09T11:38:52;1.25;;;0.80;;
16099;SDS011;8154;50.830;12.082;2022-09-09T11:41:50;1.40;;;0.90;;
16099;SDS011;8154;50.830;12.082;2022-09-09T11:44:34;1.05;;;0.80;;
16099;SDS011;8154;50.830;12.082;2022-09-09T11:53:05;1.13;;;0.80;;
16099;SDS011;8154;50.830;12.082;2022-09-09T11:56:01;0.80;;;0.80;;
16099;SDS011;8154;50.830;12.082;2022-09-09T11:59:01;0.70;;;0.70;;
16099;SDS011;8154;50.830;12.082;2022-09-09T12:01:50;0.90;;;0.80;;
16099;SDS011;8154;50.830;12.082;2022-09-09T12:04:50;1.27;;;0.85;;
16099;SDS011;8154;50.830;12.082;2022-09-09T12:07:50;1.00;;;0.90;;
16099;SDS011;8154;50.830;12.082;2022-09-09T12:10:52;0.85;;;0.70;;
16099;SDS011;8154;50.830;12.082;2022-09-09T12:13:38;0.88;;;0.88;;
16099;SDS011;8154;50.830;12.082;2022-09-09T12:16:55;0.70;;;0.70;;
16099;SDS011;8154;50.830;12.082;2022-09-09T12:19:33;1.05;;;0.80;;
16099;SDS011;8154;50.830;12.082;2022-09-09T12:22:30;0.80;;;0.80;;
16099;SDS011;8154;50.830;12.082;2022-09-09T12:28:24;0.88;;;0.80;;
16099;SDS011;8154;50.830;12.082;2022-09-09T12:35:03;0.70;;;0.70;;
16099;SDS011;8154;50.830;12.082;2022-09-09T12:37:56;0.65;;;0.65;;
16099;SDS011;8154;50.830;12.082;2022-09-09T12:40:53;0.80;;;0.80;;
16099;SDS011;8154;50.830;12.082;2022-09-09T12:43:38;1.15;;;0.77;;
16099;SDS011;8154;50.830;12.082;2022-09-09T12:49:37;0.70;;;0.70;;
16099;SDS011;8154;50.830;12.082;2022-09-09T12:52:32;0.90;;;0.80;;
16099;SDS011;8154;50.830;12.082;2022-09-09T12:55:20;0.80;;;0.80;;
16099;SDS011;8154;50.830;12.082;2022-09-09T12:58:11;0.60;;;0.60;;
16099;SDS011;8154;50.830;12.082;2022-09-09T13:01:00;0.88;;;0.80;;
16099;SDS011;8154;50.830;12.082;2022-09-09T13:03:48;0.90;;;0.80;;
16099;SDS011;8154;50.830;12.082;2022-09-09T13:06:33;0.80;;;0.70;;
16099;SDS011;8154;50.830;12.082;2022-09-09T13:09:18;0.80;;;0.80;;
16099;SDS011;8154;50.830;12.082;2022-09-09T13:12:02;0.70;;;0.70;;
16099;SDS011;8154;50.830;12.082;2022-09-09T13:14:50;0.75;;;0.75;;
16099;SDS011;8154;50.830;12.082;2022-09-09T13:17:37;0.70;;;0.70;;
16099;SDS011;8154;50.830;12.082;2022-09-09T13:20:23;0.90;;;0.75;;
16099;SDS011;8154;50.830;12.082;2022-09-09T13:23:08;0.68;;;0.68;;
16099;SDS011;8154;50.830;12.082;2022-09-09T13:25:57;0.95;;;0.80;;
16099;SDS011;8154;50.830;12.082;2022-09-09T13:28:48;0.77;;;0.77;;
16099;SDS011;8154;50.830;12.082;2022-09-09T13:31:33;0.80;;;0.80;;
16099;SDS011;8154;50.830;12.082;2022-09-09T13:34:30;0.65;;;0.65;;
16099;SDS011;8154;50.830;12.082;2022-09-09T13:37:22;0.70;;;0.70;;
16099;SDS011;8154;50.830;12.082;2022-09-09T13:40:17;1.10;;;0.80;;
16099;SDS011;8154;50.830;12.082;2022-09-09T13:43:03;0.70;;;0.70;;
16099;SDS011;8154;50.830;12.082;2022-09-09T13:45:56;0.70;;;0.70;;
16099;SDS011;8154;50.830;12.082;2022-09-09T13:48:53;0.77;;;0.70;;
16099;SDS011;8154;50.830;12.082;2022-09-09T13:51:45;0.75;;;0.75;;
16099;SDS011;8154;50.830;12.082;2022-09-09T13:54:32;0.75;;;0.63;;
16099;SDS011;8154;50.830;12.082;2022-09-09T14:00:02;0.77;;;0.77;;
16099;SDS011;8154;50.830;12.082;2022-09-09T14:02:46;0.73;;;0.73;;
16099;SDS011;8154;50.830;12.082;2022-09-09T14:05:32;0.70;;;0.60;;
16099;SDS011;8154;50.830;12.082;2022-09-09T14:08:21;0.80;;;0.80;;
16099;SDS011;8154;50.830;12.082;2022-09-09T14:11:10;0.80;;;0.80;;
16099;SDS011;8154;50.830;12.082;2022-09-09T14:13:56;0.80;;;0.80;;
16099;SDS011;8154;50.830;12.082;2022-09-09T14:16:40;0.73;;;0.63;;
16099;SDS011;8154;50.830;12.082;2022-09-09T14:19:24;0.80;;;0.80;;
16099;SDS011;8154;50.830;12.082;2022-09-09T14:22:09;1.02;;;0.70;;
16099;SDS011;8154;50.830;12.082;2022-09-09T14:24:53;0.60;;;0.60;;
16099;SDS011;8154;50.830;12.082;2022-09-09T14:27:37;1.02;;;0.70;;
16099;SDS011;8154;50.830;12.082;2022-09-09T14:30:23;0.70;;;0.70;;
16099;SDS011;8154;50.830;12.082;2022-09-09T14:33:08;0.50;;;0.50;;
16099;SDS011;8154;50.830;12.082;2022-09-09T14:35:57;0.90;;;0.77;;
16099;SDS011;8154;50.830;12.082;2022-09-09T14:38:46;0.70;;;0.70;;
16099;SDS011;8154;50.830;12.082;2022-09-09T14:41:30;0.70;;;0.70;;
16099;SDS011;8154;50.830;12.082;2022-09-09T14:44:15;0.93;;;0.70;;
16099;SDS011;8154;50.830;12.082;2022-09-09T14:46:59;0.70;;;0.70;;
16099;SDS011;8154;50.830;12.082;2022-09-09T14:49:44;0.95;;;0.70;;
16099;SDS011;8154;50.830;12.082;2022-09-09T14:52:29;1.00;;;0.90;;
16099;SDS011;8154;50.830;12.082;2022-09-09T14:55:14;0.70;;;0.70;;
16099;SDS011;8154;50.830;12.082;2022-09-09T14:57:59;0.65;;;0.65;;
16099;SDS011;8154;50.830;12.082;2022-09-09T15:00:43;0.68;;;0.68;;
16099;SDS011;8154;50.830;12.082;2022-09-09T15:03:27;0.70;;;0.70;;
16099;SDS011;8154;50.830;12.082;2022-09-09T15:06:12;0.70;;;0.70;;
16099;SDS011;8154;50.830;12.082;2022-09-09T15:08:57;0.75;;;0.70;;
16099;SDS011;8154;50.830;12.082;2022-09-09T15:11:41;0.60;;;0.60;;
16099;SDS011;8154;50.830;12.082;2022-09-09T15:14:26;0.63;;;0.60;;
16099;SDS011;8154;50.830;12.082;2022-09-09T15:17:11;0.50;;;0.50;;
16099;SDS011;8154;50.830;12.082;2022-09-09T15:19:56;0.68;;;0.68;;
16099;SDS011;8154;50.830;12.082;2022-09-09T15:22:40;0.68;;;0.68;;
16099;SDS011;8154;50.830;12.082;2022-09-09T15:25:25;0.70;;;0.70;;
16099;SDS011;8154;50.830;12.082;2022-09-09T15:28:10;0.70;;;0.70;;
16099;SDS011;8154;50.830;12.082;2022-09-09T15:30:56;0.60;;;0.60;;
16099;SDS011;8154;50.830;12.082;2022-09-09T15:33:40;0.70;;;0.60;;
16099;SDS011;8154;50.830;12.082;2022-09-09T15:36:25;0.73;;;0.70;;
16099;SDS011;8154;50.830;12.082;2022-09-09T15:39:14;0.70;;;0.70;;
16099;SDS011;8154;50.830;12.082;2022-09-09T15:41:59;0.60;;;0.60;;
16099;SDS011;8154;50.830;12.082;2022-09-09T15:44:44;0.80;;;0.70;;
16099;SDS011;8154;50.830;12.082;2022-09-09T15:47:28;0.50;;;0.50;;
16099;SDS011;8154;50.830;12.082;2022-09-09T15:50:12;0.82;;;0.70;;
16099;SDS011;8154;50.830;12.082;2022-09-09T15:52:56;0.70;;;0.70;;
16099;SDS011;8154;50.830;12.082;2022-09-09T15:55:41;1.23;;;0.50;;
16099;SDS011;8154;50.830;12.082;2022-09-09T15:58:24;0.55;;;0.55;;
16099;SDS011;8154;50.830;12.082;2022-09-09T16:01:09;0.70;;;0.70;;
16099;SDS011;8154;50.830;12.082;2022-09-09T16:03:56;0.60;;;0.60;;
16099;SDS011;8154;50.830;12.082;2022-09-09T16:06:41;0.60;;;0.60;;
16099;SDS011;8154;50.830;12.082;2022-09-09T16:09:26;0.63;;;0.63;;
16099;SDS011;8154;50.830;12.082;2022-09-09T16:12:11;0.63;;;0.63;;
16099;SDS011;8154;50.830;12.082;2022-09-09T16:14:56;0.65;;;0.65;;
16099;SDS011;8154;50.830;12.082;2022-09-09T16:17:40;0.60;;;0.60;;
16099;SDS011;8154;50.830;12.082;2022-09-09T16:20:25;0.60;;;0.60;;
16099;SDS011;8154;50.830;12.082;2022-09-09T16:23:09;0.77;;;0.70;;
16099;SDS011;8154;50.830;12.082;2022-09-09T16:25:54;0.60;;;0.60;;
16099;SDS011;8154;50.830;12.082;2022-09-09T16:28:39;0.60;;;0.60;;
16099;SDS011;8154;50.830;12.082;2022-09-09T16:31:23;0.70;;;0.70;;
16099;SDS011;8154;50.830;12.082;2022-09-09T16:34:08;0.60;;;0.60;;
16099;SDS011;8154;50.830;12.082;2022-09-09T16:36:53;0.88;;;0.70;;
16099;SDS011;8154;50.830;12.082;2022-09-09T16:39:37;0.60;;;0.60;;
16099;SDS011;8154;50.830;12.082;2022-09-09T16:42:21;0.80;;;0.60;;
16099;SDS011;8154;50.830;12.082;2022-09-09T16:45:05;0.77;;;0.70;;
16099;SDS011;8154;50.830;12.082;2022-09-09T16:47:50;0.60;;;0.60;;
16099;SDS011;8154;50.830;12.082;2022-09-09T16:50:35;0.75;;;0.70;;
16099;SDS011;8154;50.830;12.082;2022-09-09T16:53:19;0.70;;;0.70;;
16099;SDS011;8154;50.830;12.082;2022-09-09T16:56:07;0.60;;;0.60;;
16099;SDS011;8154;50.830;12.082;2022-09-09T16:58:57;0.75;;;0.60;;
16099;SDS011;8154;50.830;12.082;2022-09-09T17:01:43;1.02;;;0.50;;
16099;SDS011;8154;50.830;12.082;2022-09-09T17:04:29;0.70;;;0.70;;
16099;SDS011;8154;50.830;12.082;2022-09-09T17:07:14;0.80;;;0.70;;
16099;SDS011;8154;50.830;12.082;2022-09-09T17:09:59;0.50;;;0.50;;
16099;SDS011;8154;50.830;12.082;2022-09-09T17:12:44;0.65;;;0.65;;
16099;SDS011;8154;50.830;12.082;2022-09-09T17:15:29;0.60;;;0.60;;
16099;SDS011;8154;50.830;12.082;2022-09-09T17:18:14;0.60;;;0.60;;
16099;SDS011;8154;50.830;12.082;2022-09-09T17:21:04;0.70;;;0.70;;
16099;SDS011;8154;50.830;12.082;2022-09-09T17:23:51;0.70;;;0.70;;
16099;SDS011;8154;50.830;12.082;2022-09-09T17:26:36;0.77;;;0.77;;
16099;SDS011;8154;50.830;12.082;2022-09-09T17:29:22;0.63;;;0.63;;
16099;SDS011;8154;50.830;12.082;2022-09-09T17:32:06;0.70;;;0.70;;
16099;SDS011;8154;50.830;12.082;2022-09-09T17:34:50;0.80;;;0.73;;
16099;SDS011;8154;50.830;12.082;2022-09-09T17:37:36;0.73;;;0.73;;
16099;SDS011;8154;50.830;12.082;2022-09-09T17:40:20;0.60;;;0.60;;
16099;SDS011;8154;50.830;12.082;2022-09-09T17:43:05;0.60;;;0.60;;
16099;SDS011;8154;50.830;12.082;2022-09-09T17:45:49;0.60;;;0.60;;
16099;SDS011;8154;50.830;12.082;2022-09-09T17:48:33;0.80;;;0.63;;
16099;SDS011;8154;50.830;12.082;2022-09-09T17:51:21;0.60;;;0.60;;
16099;SDS011;8154;50.830;12.082;2022-09-09T17:54:15;0.60;;;0.60;;
16099;SDS011;8154;50.830;12.082;2022-09-09T17:57:02;0.88;;;0.70;;
16099;SDS011;8154;50.830;12.082;2022-09-09T17:59:47;1.35;;;0.60;;
16099;SDS011;8154;50.830;12.082;2022-09-09T18:02:31;0.75;;;0.70;;
16099;SDS011;8154;50.830;12.082;2022-09-09T18:05:15;1.05;;;0.80;;
16099;SDS011;8154;50.830;12.082;2022-09-09T18:07:59;0.68;;;0.68;;
16099;SDS011;8154;50.830;12.082;2022-09-09T18:10:50;1.00;;;0.80;;